DGLW weather

Wa Airport
Wa, Upper West Region, Ghana

Public forecast

Using degrees Celsius for public forecast. Weather courtesy of forecast.io.

METAR (pilot weather report)

Report is more than 6 hours old.

Closest report is Gaoua Airport, 42.8 nm (79.2 km) WNW. Retrieved 2009/09/21 17:00 UTC (10 years ago):

DFOG 211700Z 18004KT 9999 FEW020 FEW040CB NW NE BKN260 30/23

TAF (pilot weather forecast)

Closest forecast is Bobo Dioulasso Airport, 125.5 nm (232.5 km) WNW. Retrieved 2019/05/19 18:21 UTC (6 hours ago):

TAF DFOO 191700Z 1918/2018 22010KT 9999 SCT020 TEMPO 1918/1924 4000 TSRA SCT020 FEW036CB